sensor_id;sensor_type;location;lat;lon;timestamp;pressure;altitude;pressure_sealevel;temperature;humidity
8059;BME280;4072;42.668;23.396;2023-07-13T00:01:09;95344.72;;;23.66;99.42
8059;BME280;4072;42.668;23.396;2023-07-13T00:03:37;95343.25;;;23.65;98.97
8059;BME280;4072;42.668;23.396;2023-07-13T00:06:09;95343.53;;;23.61;99.75
8059;BME280;4072;42.668;23.396;2023-07-13T00:08:38;95335.34;;;23.56;100.00
8059;BME280;4072;42.668;23.396;2023-07-13T00:11:06;95338.78;;;23.62;100.00
8059;BME280;4072;42.668;23.396;2023-07-13T00:13:37;95320.38;;;23.64;99.65
8059;BME280;4072;42.668;23.396;2023-07-13T00:16:06;95342.41;;;23.70;100.00
8059;BME280;4072;42.668;23.396;2023-07-13T00:18:36;95335.59;;;23.71;100.00
8059;BME280;4072;42.668;23.396;2023-07-13T00:21:04;95332.34;;;23.54;100.00
8059;BME280;4072;42.668;23.396;2023-07-13T00:23:36;95336.72;;;23.31;100.00
8059;BME280;4072;42.668;23.396;2023-07-13T00:26:05;95328.88;;;23.35;100.00
8059;BME280;4072;42.668;23.396;2023-07-13T00:28:35;95324.97;;;23.43;100.00
8059;BME280;4072;42.668;23.396;2023-07-13T00:31:03;95302.09;;;23.30;100.00
8059;BME280;4072;42.668;23.396;2023-07-13T00:33:34;95320.84;;;23.50;100.00
8059;BME280;4072;42.668;23.396;2023-07-13T00:36:04;95314.72;;;23.57;100.00
8059;BME280;4072;42.668;23.396;2023-07-13T00:38:34;95314.91;;;23.46;100.00
8059;BME280;4072;42.668;23.396;2023-07-13T00:41:03;95266.13;;;23.17;100.00
8059;BME280;4072;42.668;23.396;2023-07-13T00:43:32;95320.47;;;23.59;100.00
8059;BME280;4072;42.668;23.396;2023-07-13T00:46:22;95325.34;;;23.53;100.00
8059;BME280;4072;42.668;23.396;2023-07-13T00:48:51;95281.88;;;23.22;100.00
8059;BME280;4072;42.668;23.396;2023-07-13T00:51:30;95331.47;;;23.46;100.00
8059;BME280;4072;42.668;23.396;2023-07-13T00:54:04;95328.50;;;23.44;100.00
8059;BME280;4072;42.668;23.396;2023-07-13T00:56:33;95320.59;;;23.35;100.00
8059;BME280;4072;42.668;23.396;2023-07-13T00:59:02;95323.72;;;23.26;100.00
8059;BME280;4072;42.668;23.396;2023-07-13T01:01:31;95313.75;;;23.23;100.00
8059;BME280;4072;42.668;23.396;2023-07-13T01:04:00;95315.13;;;23.11;100.00
8059;BME280;4072;42.668;23.396;2023-07-13T01:06:28;95314.59;;;22.93;100.00
8059;BME280;4072;42.668;23.396;2023-07-13T01:08:59;95314.59;;;22.93;100.00
8059;BME280;4072;42.668;23.396;2023-07-13T01:11:28;95310.34;;;22.92;100.00
8059;BME280;4072;42.668;23.396;2023-07-13T01:13:56;95311.91;;;22.88;100.00
8059;BME280;4072;42.668;23.396;2023-07-13T01:16:26;95307.41;;;22.85;100.00
8059;BME280;4072;42.668;23.396;2023-07-13T01:18:55;95305.41;;;22.85;100.00
8059;BME280;4072;42.668;23.396;2023-07-13T01:21:29;95306.25;;;22.80;100.00
8059;BME280;4072;42.668;23.396;2023-07-13T01:23:58;95309.72;;;22.81;100.00
8059;BME280;4072;42.668;23.396;2023-07-13T01:26:26;95303.53;;;22.93;100.00
8059;BME280;4072;42.668;23.396;2023-07-13T01:28:54;95297.44;;;22.82;100.00
8059;BME280;4072;42.668;23.396;2023-07-13T01:31:24;95283.41;;;22.61;100.00
8059;BME280;4072;42.668;23.396;2023-07-13T01:33:53;95307.41;;;22.66;100.00
8059;BME280;4072;42.668;23.396;2023-07-13T01:36:21;95311.59;;;22.73;100.00
8059;BME280;4072;42.668;23.396;2023-07-13T01:38:51;95315.75;;;22.79;100.00
8059;BME280;4072;42.668;23.396;2023-07-13T01:41:19;95267.00;;;22.50;100.00
8059;BME280;4072;42.668;23.396;2023-07-13T01:43:47;95309.81;;;22.94;100.00
8059;BME280;4072;42.668;23.396;2023-07-13T01:46:16;95313.34;;;22.95;100.00
8059;BME280;4072;42.668;23.396;2023-07-13T01:48:49;95308.63;;;22.89;100.00
8059;BME280;4072;42.668;23.396;2023-07-13T01:51:20;95284.00;;;22.73;100.00
8059;BME280;4072;42.668;23.396;2023-07-13T01:53:48;95300.13;;;22.88;100.00
8059;BME280;4072;42.668;23.396;2023-07-13T01:56:18;95286.63;;;22.84;100.00
8059;BME280;4072;42.668;23.396;2023-07-13T01:58:48;95218.38;;;22.47;100.00
8059;BME280;4072;42.668;23.396;2023-07-13T02:01:16;95293.94;;;22.81;100.00
8059;BME280;4072;42.668;23.396;2023-07-13T02:03:45;95302.88;;;22.69;100.00
8059;BME280;4072;42.668;23.396;2023-07-13T02:06:13;95303.09;;;22.71;100.00
8059;BME280;4072;42.668;23.396;2023-07-13T02:08:41;95313.53;;;22.59;100.00
8059;BME280;4072;42.668;23.396;2023-07-13T02:11:10;95267.63;;;22.14;100.00
8059;BME280;4072;42.668;23.396;2023-07-13T02:13:40;95307.16;;;22.40;100.00
8059;BME280;4072;42.668;23.396;2023-07-13T02:16:08;95316.25;;;22.35;100.00
8059;BME280;4072;42.668;23.396;2023-07-13T02:18:37;95312.59;;;22.27;100.00
8059;BME280;4072;42.668;23.396;2023-07-13T02:21:05;95291.19;;;22.15;100.00
8059;BME280;4072;42.668;23.396;2023-07-13T02:23:33;95315.56;;;22.29;100.00
8059;BME280;4072;42.668;23.396;2023-07-13T02:26:03;95309.03;;;22.32;100.00
8059;BME280;4072;42.668;23.396;2023-07-13T02:28:31;95246.75;;;21.70;100.00
8059;BME280;4072;42.668;23.396;2023-07-13T02:31:09;95318.31;;;22.29;100.00
8059;BME280;4072;42.668;23.396;2023-07-13T02:33:37;95318.88;;;22.22;100.00
8059;BME280;4072;42.668;23.396;2023-07-13T02:36:06;95329.78;;;22.33;100.00
8059;BME280;4072;42.668;23.396;2023-07-13T02:38:35;95326.13;;;22.25;100.00
8059;BME280;4072;42.668;23.396;2023-07-13T02:41:04;95325.22;;;22.17;100.00
8059;BME280;4072;42.668;23.396;2023-07-13T02:43:33;95324.50;;;22.11;100.00
8059;BME280;4072;42.668;23.396;2023-07-13T02:46:02;95319.00;;;22.11;100.00
8059;BME280;4072;42.668;23.396;2023-07-13T02:48:40;95271.53;;;21.76;100.00
8059;BME280;4072;42.668;23.396;2023-07-13T02:51:08;95326.47;;;22.16;100.00
8059;BME280;4072;42.668;23.396;2023-07-13T02:53:37;95320.16;;;22.21;100.00
8059;BME280;4072;42.668;23.396;2023-07-13T02:56:06;95334.41;;;22.25;100.00
8059;BME280;4072;42.668;23.396;2023-07-13T02:58:35;95281.69;;;21.86;100.00
8059;BME280;4072;42.668;23.396;2023-07-13T03:01:10;95330.53;;;22.10;100.00
8059;BME280;4072;42.668;23.396;2023-07-13T03:03:40;95329.31;;;22.05;100.00
8059;BME280;4072;42.668;23.396;2023-07-13T03:06:08;95312.22;;;21.88;100.00
8059;BME280;4072;42.668;23.396;2023-07-13T03:08:37;95329.22;;;21.92;100.00
8059;BME280;4072;42.668;23.396;2023-07-13T03:11:07;95341.81;;;21.82;100.00
8059;BME280;4072;42.668;23.396;2023-07-13T03:13:35;95278.78;;;21.44;100.00
8059;BME280;4072;42.668;23.396;2023-07-13T03:16:04;95249.22;;;21.09;100.00
8059;BME280;4072;42.668;23.396;2023-07-13T03:18:34;95336.66;;;21.62;100.00
8059;BME280;4072;42.668;23.396;2023-07-13T03:21:04;95330.59;;;21.69;100.00
8059;BME280;4072;42.668;23.396;2023-07-13T03:23:33;95337.38;;;21.74;100.00
8059;BME280;4072;42.668;23.396;2023-07-13T03:26:04;95337.63;;;21.76;100.00
8059;BME280;4072;42.668;23.396;2023-07-13T03:28:32;95304.22;;;21.50;100.00
8059;BME280;4072;42.668;23.396;2023-07-13T03:31:04;95286.75;;;21.47;100.00
8059;BME280;4072;42.668;23.396;2023-07-13T03:33:33;95351.00;;;21.90;100.00
8059;BME280;4072;42.668;23.396;2023-07-13T03:36:04;95347.78;;;21.86;100.00
8059;BME280;4072;42.668;23.396;2023-07-13T03:38:33;95345.94;;;21.94;100.00
8059;BME280;4072;42.668;23.396;2023-07-13T03:41:01;95343.09;;;22.05;100.00
8059;BME280;4072;42.668;23.396;2023-07-13T03:43:30;95291.38;;;21.63;100.00
8059;BME280;4072;42.668;23.396;2023-07-13T03:45:58;95336.00;;;22.15;100.00
8059;BME280;4072;42.668;23.396;2023-07-13T03:48:26;95338.19;;;22.22;100.00
8059;BME280;4072;42.668;23.396;2023-07-13T03:50:54;95337.41;;;22.27;100.00
8059;BME280;4072;42.668;23.396;2023-07-13T03:53:24;95332.69;;;22.46;100.00
8059;BME280;4072;42.668;23.396;2023-07-13T03:55:52;95343.47;;;22.50;100.00
8059;BME280;4072;42.668;23.396;2023-07-13T03:58:26;95336.25;;;22.65;100.00
8059;BME280;4072;42.668;23.396;2023-07-13T04:00:55;95341.88;;;22.78;100.00
8059;BME280;4072;42.668;23.396;2023-07-13T04:03:24;95341.72;;;22.89;100.00
8059;BME280;4072;42.668;23.396;2023-07-13T04:05:55;95300.88;;;22.69;100.00
8059;BME280;4072;42.668;23.396;2023-07-13T04:08:29;95345.63;;;23.00;100.00
8059;BME280;4072;42.668;23.396;2023-07-13T04:10:58;95346.00;;;23.09;100.00
8059;BME280;4072;42.668;23.396;2023-07-13T04:13:26;95340.13;;;23.18;100.00
8059;BME280;4072;42.668;23.396;2023-07-13T04:15:55;95336.72;;;23.31;100.00
8059;BME280;4072;42.668;23.396;2023-07-13T04:18:23;95338.03;;;23.43;100.00
8059;BME280;4072;42.668;23.396;2023-07-13T04:20:52;95352.50;;;23.49;100.00
8059;BME280;4072;42.668;23.396;2023-07-13T04:23:20;95351.75;;;23.48;100.00
8059;BME280;4072;42.668;23.396;2023-07-13T04:25:52;95346.88;;;23.23;100.00
8059;BME280;4072;42.668;23.396;2023-07-13T04:28:21;95353.91;;;23.55;100.00
8059;BME280;4072;42.668;23.396;2023-07-13T04:30:51;95357.34;;;23.61;100.00
8059;BME280;4072;42.668;23.396;2023-07-13T04:33:20;95339.66;;;23.51;100.00
8059;BME280;4072;42.668;23.396;2023-07-13T04:35:49;95365.44;;;23.91;100.00
8059;BME280;4072;42.668;23.396;2023-07-13T04:38:25;95359.38;;;24.24;100.00
8059;BME280;4072;42.668;23.396;2023-07-13T04:40:57;95366.31;;;24.43;100.00
8059;BME280;4072;42.668;23.396;2023-07-13T04:43:25;95364.50;;;24.46;100.00
8059;BME280;4072;42.668;23.396;2023-07-13T04:45:56;95361.09;;;24.53;100.00
8059;BME280;4072;42.668;23.396;2023-07-13T04:48:24;95364.84;;;24.55;100.00
8059;BME280;4072;42.668;23.396;2023-07-13T04:50:56;95368.16;;;24.54;100.00
8059;BME280;4072;42.668;23.396;2023-07-13T04:53:26;95374.78;;;24.90;100.00
8059;BME280;4072;42.668;23.396;2023-07-13T04:55:56;95370.72;;;25.04;100.00
8059;BME280;4072;42.668;23.396;2023-07-13T04:58:25;95344.25;;;25.29;99.81
8059;BME280;4072;42.668;23.396;2023-07-13T05:00:59;95376.13;;;25.69;99.12
8059;BME280;4072;42.668;23.396;2023-07-13T05:03:28;95378.69;;;26.21;93.89
8059;BME280;4072;42.668;23.396;2023-07-13T05:05:58;95377.44;;;26.50;90.67
8059;BME280;4072;42.668;23.396;2023-07-13T05:08:26;95392.66;;;26.77;90.61
8059;BME280;4072;42.668;23.396;2023-07-13T05:10:56;95386.75;;;27.52;91.59
8059;BME280;4072;42.668;23.396;2023-07-13T05:13:27;95391.50;;;27.79;88.89
8059;BME280;4072;42.668;23.396;2023-07-13T05:15:59;95386.88;;;27.82;90.27
8059;BME280;4072;42.668;23.396;2023-07-13T05:18:28;95347.50;;;27.55;91.05
8059;BME280;4072;42.668;23.396;2023-07-13T05:20:58;95399.53;;;27.90;89.67
8059;BME280;4072;42.668;23.396;2023-07-13T05:23:29;95396.69;;;27.75;91.01
8059;BME280;4072;42.668;23.396;2023-07-13T05:25:59;95338.03;;;27.43;88.27
8059;BME280;4072;42.668;23.396;2023-07-13T05:28:30;95399.31;;;27.88;87.57
8059;BME280;4072;42.668;23.396;2023-07-13T05:30:59;95399.19;;;28.32;86.96
8059;BME280;4072;42.668;23.396;2023-07-13T05:33:28;95355.25;;;28.53;79.54
8059;BME280;4072;42.668;23.396;2023-07-13T05:35:57;95391.22;;;28.96;78.81
8059;BME280;4072;42.668;23.396;2023-07-13T05:38:27;95398.41;;;29.21;72.74
8059;BME280;4072;42.668;23.396;2023-07-13T05:40:57;95391.84;;;29.49;68.45
8059;BME280;4072;42.668;23.396;2023-07-13T05:43:29;95407.78;;;29.56;67.49
8059;BME280;4072;42.668;23.396;2023-07-13T05:45:57;95405.84;;;30.13;63.99
8059;BME280;4072;42.668;23.396;2023-07-13T05:48:27;95384.81;;;30.44;62.46
8059;BME280;4072;42.668;23.396;2023-07-13T05:50:55;95326.06;;;30.34;58.88
8059;BME280;4072;42.668;23.396;2023-07-13T05:53:23;95407.81;;;31.01;56.44
8059;BME280;4072;42.668;23.396;2023-07-13T05:55:54;95394.47;;;31.09;56.34
8059;BME280;4072;42.668;23.396;2023-07-13T05:58:26;95395.81;;;31.42;52.98
8059;BME280;4072;42.668;23.396;2023-07-13T06:01:02;95380.19;;;31.05;53.93
8059;BME280;4072;42.668;23.396;2023-07-13T06:03:30;95399.44;;;31.52;54.77
8059;BME280;4072;42.668;23.396;2023-07-13T06:05:59;95388.75;;;31.41;55.22
8059;BME280;4072;42.668;23.396;2023-07-13T06:08:28;95386.09;;;31.09;57.75
8059;BME280;4072;42.668;23.396;2023-07-13T06:11:02;95385.75;;;31.73;54.06
8059;BME280;4072;42.668;23.396;2023-07-13T06:13:31;95354.84;;;31.03;57.20
8059;BME280;4072;42.668;23.396;2023-07-13T06:16:02;95381.72;;;30.57;61.03
8059;BME280;4072;42.668;23.396;2023-07-13T06:18:32;95393.63;;;30.82;59.72
8059;BME280;4072;42.668;23.396;2023-07-13T06:21:01;95407.31;;;30.71;61.00
8059;BME280;4072;42.668;23.396;2023-07-13T06:23:33;95400.72;;;31.00;59.29
8059;BME280;4072;42.668;23.396;2023-07-13T06:26:01;95390.19;;;31.76;55.32
8059;BME280;4072;42.668;23.396;2023-07-13T06:28:30;95392.44;;;31.44;56.50
8059;BME280;4072;42.668;23.396;2023-07-13T06:31:00;95393.19;;;31.61;56.19
8059;BME280;4072;42.668;23.396;2023-07-13T06:33:29;95393.22;;;32.14;54.23
8059;BME280;4072;42.668;23.396;2023-07-13T06:35:57;95399.59;;;32.24;54.94
8059;BME280;4072;42.668;23.396;2023-07-13T06:38:26;95385.47;;;32.22;52.03
8059;BME280;4072;42.668;23.396;2023-07-13T06:40:53;95402.13;;;32.56;50.07
8059;BME280;4072;42.668;23.396;2023-07-13T06:43:22;95394.53;;;32.13;51.76
8059;BME280;4072;42.668;23.396;2023-07-13T06:45:54;95392.31;;;32.38;52.21
8059;BME280;4072;42.668;23.396;2023-07-13T06:48:24;95373.56;;;32.31;52.37
8059;BME280;4072;42.668;23.396;2023-07-13T06:50:54;95388.00;;;32.28;51.94
8059;BME280;4072;42.668;23.396;2023-07-13T06:53:23;95390.63;;;31.99;54.60
8059;BME280;4072;42.668;23.396;2023-07-13T06:55:51;95373.91;;;31.65;55.79
8059;BME280;4072;42.668;23.396;2023-07-13T06:58:20;95381.03;;;32.19;55.94
8059;BME280;4072;42.668;23.396;2023-07-13T07:00:50;95394.91;;;32.53;53.46
8059;BME280;4072;42.668;23.396;2023-07-13T07:03:21;95396.22;;;32.52;51.98
8059;BME280;4072;42.668;23.396;2023-07-13T07:05:51;95388.50;;;32.07;53.72
8059;BME280;4072;42.668;23.396;2023-07-13T07:08:20;95391.97;;;31.98;56.51
8059;BME280;4072;42.668;23.396;2023-07-13T07:10:48;95398.34;;;32.08;52.98
8059;BME280;4072;42.668;23.396;2023-07-13T07:13:22;95390.28;;;32.12;50.91
8059;BME280;4072;42.668;23.396;2023-07-13T07:15:50;95398.03;;;32.04;52.95
8059;BME280;4072;42.668;23.396;2023-07-13T07:18:19;95392.97;;;32.46;51.68
8059;BME280;4072;42.668;23.396;2023-07-13T07:20:48;95377.16;;;32.41;51.71
8059;BME280;4072;42.668;23.396;2023-07-13T07:23:18;95387.00;;;32.69;52.15
8059;BME280;4072;42.668;23.396;2023-07-13T07:25:46;95393.56;;;32.54;49.96
8059;BME280;4072;42.668;23.396;2023-07-13T07:28:16;95378.09;;;32.17;51.77
8059;BME280;4072;42.668;23.396;2023-07-13T07:30:48;95382.88;;;32.07;53.76
8059;BME280;4072;42.668;23.396;2023-07-13T07:33:19;95378.00;;;31.81;53.38
8059;BME280;4072;42.668;23.396;2023-07-13T07:35:47;95247.19;;;31.19;55.08
8059;BME280;4072;42.668;23.396;2023-07-13T07:38:20;95373.47;;;32.84;50.79
8059;BME280;4072;42.668;23.396;2023-07-13T07:40:50;95371.84;;;32.45;52.14
8059;BME280;4072;42.668;23.396;2023-07-13T07:43:22;95366.47;;;32.66;51.44
8059;BME280;4072;42.668;23.396;2023-07-13T07:45:51;95374.09;;;32.92;48.45
8059;BME280;4072;42.668;23.396;2023-07-13T07:48:19;95371.31;;;32.56;48.61
8059;BME280;4072;42.668;23.396;2023-07-13T07:50:47;95367.75;;;33.01;48.20
8059;BME280;4072;42.668;23.396;2023-07-13T07:53:15;95366.94;;;32.82;48.91
8059;BME280;4072;42.668;23.396;2023-07-13T07:55:45;95368.66;;;32.49;50.40
8059;BME280;4072;42.668;23.396;2023-07-13T07:58:18;95351.41;;;31.73;53.16
8059;BME280;4072;42.668;23.396;2023-07-13T08:00:50;95338.06;;;31.54;54.36
8059;BME280;4072;42.668;23.396;2023-07-13T08:03:21;95354.50;;;31.94;53.18
8059;BME280;4072;42.668;23.396;2023-07-13T08:05:52;95344.00;;;32.11;54.05
8059;BME280;4072;42.668;23.396;2023-07-13T08:08:24;95340.53;;;32.56;52.40
8059;BME280;4072;42.668;23.396;2023-07-13T08:10:53;95338.13;;;32.53;51.82
8059;BME280;4072;42.668;23.396;2023-07-13T08:13:41;95343.84;;;33.00;49.59
8059;BME280;4072;42.668;23.396;2023-07-13T08:16:10;95334.75;;;32.18;47.83
8059;BME280;4072;42.668;23.396;2023-07-13T08:18:38;95346.50;;;32.43;48.59
8059;BME280;4072;42.668;23.396;2023-07-13T08:21:08;95338.44;;;32.66;49.81
8059;BME280;4072;42.668;23.396;2023-07-13T08:23:37;95329.91;;;32.64;48.66
8059;BME280;4072;42.668;23.396;2023-07-13T08:26:07;95338.13;;;32.43;50.68
8059;BME280;4072;42.668;23.396;2023-07-13T08:28:36;95334.28;;;32.48;49.97
8059;BME280;4072;42.668;23.396;2023-07-13T08:31:05;95320.75;;;32.54;48.33
8059;BME280;4072;42.668;23.396;2023-07-13T08:33:35;95331.50;;;32.22;48.99
8059;BME280;4072;42.668;23.396;2023-07-13T08:36:04;95273.56;;;32.05;49.10
8059;BME280;4072;42.668;23.396;2023-07-13T08:38:33;95315.94;;;32.28;48.26
8059;BME280;4072;42.668;23.396;2023-07-13T08:41:11;95318.81;;;32.11;49.32
8059;BME280;4072;42.668;23.396;2023-07-13T08:43:41;95309.19;;;31.78;49.46
8059;BME280;4072;42.668;23.396;2023-07-13T08:46:13;95297.34;;;31.87;51.26
8059;BME280;4072;42.668;23.396;2023-07-13T08:48:47;95319.66;;;32.04;50.29
8059;BME280;4072;42.668;23.396;2023-07-13T08:51:26;95242.41;;;31.82;49.74
8059;BME280;4072;42.668;23.396;2023-07-13T08:53:59;95313.56;;;32.70;49.47
8059;BME280;4072;42.668;23.396;2023-07-13T08:56:32;95315.22;;;33.02;49.83
8059;BME280;4072;42.668;23.396;2023-07-13T08:59:05;95310.22;;;33.00;49.03
8059;BME280;4072;42.668;23.396;2023-07-13T09:01:51;95320.22;;;32.84;50.25
8059;BME280;4072;42.668;23.396;2023-07-13T09:04:26;95319.13;;;32.61;51.10
8059;BME280;4072;42.668;23.396;2023-07-13T09:07:02;95290.88;;;32.30;49.98
8059;BME280;4072;42.668;23.396;2023-07-13T09:09:44;95341.69;;;32.53;50.60
8059;BME280;4072;42.668;23.396;2023-07-13T09:12:25;95297.59;;;32.08;49.12
8059;BME280;4072;42.668;23.396;2023-07-13T09:14:56;95348.53;;;32.33;49.25
8059;BME280;4072;42.668;23.396;2023-07-13T09:17:27;95345.09;;;32.25;50.65
8059;BME280;4072;42.668;23.396;2023-07-13T09:20:03;95289.34;;;32.10;47.53
8059;BME280;4072;42.668;23.396;2023-07-13T09:22:34;95338.03;;;32.70;50.27
8059;BME280;4072;42.668;23.396;2023-07-13T09:25:18;95341.44;;;32.78;49.80
8059;BME280;4072;42.668;23.396;2023-07-13T09:27:53;95345.47;;;33.13;46.82
8059;BME280;4072;42.668;23.396;2023-07-13T09:30:30;95335.00;;;33.52;46.56
8059;BME280;4072;42.668;23.396;2023-07-13T09:33:01;95345.06;;;33.17;46.91
8059;BME280;4072;42.668;23.396;2023-07-13T09:35:31;95335.72;;;32.85;46.94
8059;BME280;4072;42.668;23.396;2023-07-13T09:38:10;95285.38;;;32.49;48.26
8059;BME280;4072;42.668;23.396;2023-07-13T09:40:49;95333.47;;;32.74;48.69
8059;BME280;4072;42.668;23.396;2023-07-13T09:43:23;95326.97;;;32.72;50.48
8059;BME280;4072;42.668;23.396;2023-07-13T09:45:51;95330.81;;;32.76;51.63
8059;BME280;4072;42.668;23.396;2023-07-13T09:48:20;95306.03;;;32.63;49.26
8059;BME280;4072;42.668;23.396;2023-07-13T09:50:48;95325.38;;;32.78;49.78
8059;BME280;4072;42.668;23.396;2023-07-13T09:53:19;95306.03;;;32.82;49.14
8059;BME280;4072;42.668;23.396;2023-07-13T09:55:48;95311.81;;;32.84;48.47
8059;BME280;4072;42.668;23.396;2023-07-13T09:58:21;95304.16;;;32.85;50.05
8059;BME280;4072;42.668;23.396;2023-07-13T10:00:57;95306.38;;;33.05;48.37
8059;BME280;4072;42.668;23.396;2023-07-13T10:03:27;95287.22;;;32.83;47.69
8059;BME280;4072;42.668;23.396;2023-07-13T10:06:09;95306.03;;;32.82;46.77
8059;BME280;4072;42.668;23.396;2023-07-13T10:08:39;95300.44;;;32.82;46.54
8059;BME280;4072;42.668;23.396;2023-07-13T10:11:11;95287.78;;;33.00;46.53
8059;BME280;4072;42.668;23.396;2023-07-13T10:13:42;95258.72;;;33.25;45.63
8059;BME280;4072;42.668;23.396;2023-07-13T10:16:13;95291.28;;;33.68;46.82
8059;BME280;4072;42.668;23.396;2023-07-13T10:18:43;95286.50;;;33.80;48.03
8059;BME280;4072;42.668;23.396;2023-07-13T10:21:15;95291.53;;;33.91;42.95
8059;BME280;4072;42.668;23.396;2023-07-13T10:23:57;95290.09;;;34.11;41.06
8059;BME280;4072;42.668;23.396;2023-07-13T10:26:33;95279.09;;;34.34;40.41
8059;BME280;4072;42.668;23.396;2023-07-13T10:29:06;95289.88;;;34.28;43.21
8059;BME280;4072;42.668;23.396;2023-07-13T10:31:40;95273.69;;;34.17;41.15
8059;BME280;4072;42.668;23.396;2023-07-13T10:34:11;95264.19;;;33.91;42.48
8059;BME280;4072;42.668;23.396;2023-07-13T10:36:43;95208.34;;;33.46;42.97
8059;BME280;4072;42.668;23.396;2023-07-13T10:39:16;95227.44;;;33.78;42.64
8059;BME280;4072;42.668;23.396;2023-07-13T10:41:48;95261.09;;;34.18;43.95
8059;BME280;4072;42.668;23.396;2023-07-13T10:44:25;95256.69;;;34.15;42.76
8059;BME280;4072;42.668;23.396;2023-07-13T10:46:58;95253.81;;;34.34;43.67
8059;BME280;4072;42.668;23.396;2023-07-13T10:49:28;95222.22;;;34.24;41.99
8059;BME280;4072;42.668;23.396;2023-07-13T10:51:58;95249.47;;;34.42;44.34
8059;BME280;4072;42.668;23.396;2023-07-13T10:54:31;95226.13;;;34.61;42.82
8059;BME280;4072;42.668;23.396;2023-07-13T10:57:13;95219.34;;;34.75;40.01
8059;BME280;4072;42.668;23.396;2023-07-13T10:59:46;95239.81;;;35.08;40.04
8059;BME280;4072;42.668;23.396;2023-07-13T11:02:33;95233.88;;;35.58;30.60
8059;BME280;4072;42.668;23.396;2023-07-13T11:05:20;95233.56;;;36.10;29.89
8059;BME280;4072;42.668;23.396;2023-07-13T11:08:02;95231.84;;;36.16;28.34
8059;BME280;4072;42.668;23.396;2023-07-13T11:10:47;95212.28;;;36.30;27.92
8059;BME280;4072;42.668;23.396;2023-07-13T11:13:39;95210.53;;;36.13;29.88
8059;BME280;4072;42.668;23.396;2023-07-13T11:16:36;95213.53;;;35.48;37.71
8059;BME280;4072;42.668;23.396;2023-07-13T11:19:27;95204.19;;;34.90;38.22
8059;BME280;4072;42.668;23.396;2023-07-13T11:22:09;95202.59;;;34.87;34.56
8059;BME280;4072;42.668;23.396;2023-07-13T11:25:00;95211.31;;;35.35;31.81
8059;BME280;4072;42.668;23.396;2023-07-13T11:27:38;95190.06;;;35.55;28.06
8059;BME280;4072;42.668;23.396;2023-07-13T11:30:23;95196.44;;;36.13;26.31
8059;BME280;4072;42.668;23.396;2023-07-13T11:33:04;95201.53;;;36.63;25.77
8059;BME280;4072;42.668;23.396;2023-07-13T11:35:36;95190.34;;;36.65;26.96
8059;BME280;4072;42.668;23.396;2023-07-13T11:38:13;95192.13;;;36.47;26.67
8059;BME280;4072;42.668;23.396;2023-07-13T11:40:46;95185.44;;;36.17;27.66
8059;BME280;4072;42.668;23.396;2023-07-13T11:43:22;95169.00;;;35.56;27.32
8059;BME280;4072;42.668;23.396;2023-07-13T11:45:52;95176.50;;;35.75;27.82
8059;BME280;4072;42.668;23.396;2023-07-13T11:48:23;95173.34;;;35.80;28.04
8059;BME280;4072;42.668;23.396;2023-07-13T11:50:57;95182.53;;;35.81;28.70
8059;BME280;4072;42.668;23.396;2023-07-13T11:53:28;95169.50;;;35.64;28.30
8059;BME280;4072;42.668;23.396;2023-07-13T11:55:58;95167.78;;;35.59;27.60
8059;BME280;4072;42.668;23.396;2023-07-13T11:58:27;95176.72;;;35.67;27.22
8059;BME280;4072;42.668;23.396;2023-07-13T12:00:59;95143.81;;;35.70;27.65
8059;BME280;4072;42.668;23.396;2023-07-13T12:03:32;95153.50;;;35.90;27.52
8059;BME280;4072;42.668;23.396;2023-07-13T12:06:06;95164.38;;;35.95;27.98
8059;BME280;4072;42.668;23.396;2023-07-13T12:08:49;95158.97;;;36.22;27.93
8059;BME280;4072;42.668;23.396;2023-07-13T12:11:19;95163.41;;;36.25;26.84
8059;BME280;4072;42.668;23.396;2023-07-13T12:13:48;95154.94;;;36.37;27.68
8059;BME280;4072;42.668;23.396;2023-07-13T12:16:23;95162.91;;;36.17;32.06
8059;BME280;4072;42.668;23.396;2023-07-13T12:18:54;95153.22;;;34.42;65.26
8059;BME280;4072;42.668;23.396;2023-07-13T12:21:30;95121.78;;;33.11;43.13
8059;BME280;4072;42.668;23.396;2023-07-13T12:23:59;95139.69;;;33.47;44.34
8059;BME280;4072;42.668;23.396;2023-07-13T12:26:29;95126.09;;;33.83;41.29
8059;BME280;4072;42.668;23.396;2023-07-13T12:28:59;95131.66;;;33.93;58.47
8059;BME280;4072;42.668;23.396;2023-07-13T12:31:35;95126.34;;;34.39;38.35
8059;BME280;4072;42.668;23.396;2023-07-13T12:34:07;95117.09;;;34.06;39.44
8059;BME280;4072;42.668;23.396;2023-07-13T12:36:46;95117.09;;;34.48;37.00
8059;BME280;4072;42.668;23.396;2023-07-13T12:39:19;95088.63;;;34.42;56.93
8059;BME280;4072;42.668;23.396;2023-07-13T12:41:48;95038.22;;;34.23;33.50
8059;BME280;4072;42.668;23.396;2023-07-13T12:44:27;95106.53;;;35.02;33.86
8059;BME280;4072;42.668;23.396;2023-07-13T12:46:58;95100.06;;;35.11;34.11
8059;BME280;4072;42.668;23.396;2023-07-13T12:49:30;95102.53;;;35.28;35.00
8059;BME280;4072;42.668;23.396;2023-07-13T12:52:14;95109.66;;;35.29;45.77
8059;BME280;4072;42.668;23.396;2023-07-13T12:54:52;95089.44;;;34.98;46.26
8059;BME280;4072;42.668;23.396;2023-07-13T12:57:39;95102.81;;;35.55;31.70
8059;BME280;4072;42.668;23.396;2023-07-13T13:00:29;95092.88;;;35.08;32.14
8059;BME280;4072;42.668;23.396;2023-07-13T13:03:04;95078.22;;;35.32;33.19
8059;BME280;4072;42.668;23.396;2023-07-13T13:05:59;95102.22;;;35.56;32.41
8059;BME280;4072;42.668;23.396;2023-07-13T13:08:33;95077.97;;;35.63;31.21
8059;BME280;4072;42.668;23.396;2023-07-13T13:11:03;95079.94;;;35.72;33.15
8059;BME280;4072;42.668;23.396;2023-07-13T13:13:31;95061.81;;;35.87;32.73
8059;BME280;4072;42.668;23.396;2023-07-13T13:16:01;95052.75;;;35.77;31.05
8059;BME280;4072;42.668;23.396;2023-07-13T13:18:33;95070.88;;;35.85;33.24
8059;BME280;4072;42.668;23.396;2023-07-13T13:21:02;95008.50;;;35.42;33.96
8059;BME280;4072;42.668;23.396;2023-07-13T13:23:32;94997.75;;;35.27;33.22
8059;BME280;4072;42.668;23.396;2023-07-13T13:26:02;95062.81;;;35.68;33.64
8059;BME280;4072;42.668;23.396;2023-07-13T13:28:31;95071.63;;;35.63;34.17
8059;BME280;4072;42.668;23.396;2023-07-13T13:31:00;95062.06;;;35.56;33.37